Time;durP1;ratioP1;P1;durP2;ratioP2;P2;SDS_P1;SDS_P2;PMS_P1;PMS_P2;Temp;Humidity;BMP_temperature;BMP_pressure;BME280_temperature;BME280_humidity;BME280_pressure;Samples;Min_cycle;Max_cycle;Signal;HPM_P1;HPM_P2
2021/05/23 00:00:24;;;;;;;4.50;4.00;;;21.90;29.40;;;;;;4956603;28;20498;-76
2021/05/23 00:02:50;;;;;;;4.17;3.73;;;21.80;29.40;;;;;;4956554;29;20182;-76
2021/05/23 00:05:19;;;;;;;5.63;3.70;;;21.90;29.40;;;;;;4956571;29;20399;-76
2021/05/23 00:07:54;;;;;;;4.07;3.70;;;21.90;29.30;;;;;;4956323;29;20230;-76
2021/05/23 00:10:24;;;;;;;4.03;3.30;;;21.90;29.80;;;;;;4956539;28;20410;-76
2021/05/23 00:12:50;;;;;;;3.53;3.33;;;21.90;29.30;;;;;;4956418;29;20489;-76
2021/05/23 00:15:23;;;;;;;4.50;4.10;;;21.90;29.20;;;;;;4956128;29;20514;-77
2021/05/23 00:17:49;;;;;;;5.50;3.23;;;21.90;29.30;;;;;;4956231;29;20494;-76
2021/05/23 00:20:15;;;;;;;4.37;3.90;;;21.90;29.30;;;;;;4954997;28;20554;-76
2021/05/23 00:22:41;;;;;;;4.13;3.80;;;21.90;29.30;;;;;;4956368;29;20172;-76
2021/05/23 00:25:07;;;;;;;4.83;4.30;;;21.80;29.40;;;;;;4956098;29;20421;-76
2021/05/23 00:27:33;;;;;;;3.90;3.60;;;21.90;29.40;;;;;;4956046;29;20214;-76
2021/05/23 00:29:58;;;;;;;4.20;3.80;;;21.90;29.40;;;;;;4956151;29;20850;-76
2021/05/23 00:32:24;;;;;;;3.33;3.13;;;21.90;29.40;;;;;;4955917;28;20203;-76
2021/05/23 00:34:49;;;;;;;5.40;3.70;;;21.80;29.30;;;;;;4956088;29;20238;-77
2021/05/23 00:37:15;;;;;;;3.97;3.57;;;21.90;29.30;;;;;;4955782;29;20183;-76
2021/05/23 00:39:40;;;;;;;3.60;3.30;;;21.90;29.10;;;;;;4955885;29;20211;-76
2021/05/23 00:42:09;;;;;;;4.00;3.60;;;22.00;29.20;;;;;;4955735;28;20569;-77
2021/05/23 00:44:35;;;;;;;4.03;3.47;;;21.90;29.20;;;;;;4955839;29;20164;-76
2021/05/23 00:47:00;;;;;;;3.90;3.30;;;21.90;29.20;;;;;;4955807;29;20422;-76
2021/05/23 00:49:26;;;;;;;3.80;3.50;;;21.90;29.10;;;;;;4956001;29;20419;-76
2021/05/23 00:51:52;;;;;;;3.87;3.33;;;21.90;29.30;;;;;;4955685;28;20200;-77
2021/05/23 00:54:17;;;;;;;3.50;3.10;;;21.90;29.10;;;;;;4955770;28;20183;-76
2021/05/23 00:56:43;;;;;;;4.47;3.90;;;21.90;29.20;;;;;;4954925;29;20910;-77
2021/05/23 00:59:12;;;;;;;3.60;3.30;;;21.90;29.20;;;;;;4955531;29;20210;-77
2021/05/23 01:01:43;;;;;;;7.77;3.30;;;21.90;29.10;;;;;;4955407;28;20510;-77
2021/05/23 01:04:09;;;;;;;2.93;2.73;;;21.90;29.20;;;;;;4955364;29;20454;-76
2021/05/23 01:06:34;;;;;;;3.27;2.97;;;21.80;29.20;;;;;;4955119;29;20477;-76
2021/05/23 01:09:00;;;;;;;3.40;3.10;;;21.80;29.30;;;;;;4955400;29;20506;-76
2021/05/23 01:11:29;;;;;;;5.37;3.00;;;21.80;29.20;;;;;;4955335;28;20200;-76
2021/05/23 01:13:58;;;;;;;4.30;3.90;;;21.90;29.20;;;;;;4954257;29;20423;-76
2021/05/23 01:16:28;;;;;;;3.77;2.97;;;21.90;29.20;;;;;;4953910;29;20188;-77
2021/05/23 01:18:58;;;;;;;3.00;2.80;;;21.90;29.20;;;;;;4955066;29;20518;-76
2021/05/23 01:21:27;;;;;;;3.50;3.20;;;21.90;29.20;;;;;;4955184;28;20427;-77
2021/05/23 01:23:56;;;;;;;3.23;2.97;;;21.90;29.10;;;;;;4954915;29;20937;-76
2021/05/23 01:26:25;;;;;;;2.97;2.77;;;21.90;29.10;;;;;;4953687;29;20423;-77
2021/05/23 01:28:55;;;;;;;3.30;3.00;;;21.90;29.20;;;;;;4955170;29;20415;-77
2021/05/23 01:31:23;;;;;;;3.67;3.33;;;21.80;29.20;;;;;;4937593;29;20454;-76
2021/05/23 01:33:54;;;;;;;3.40;3.10;;;21.80;29.30;;;;;;4954954;29;20415;-77
2021/05/23 01:36:26;;;;;;;3.17;2.97;;;21.80;29.20;;;;;;4954883;29;20418;-76
2021/05/23 01:38:52;;;;;;;4.10;3.10;;;21.90;29.10;;;;;;4954589;29;20466;-76
2021/05/23 01:41:18;;;;;;;3.03;2.77;;;21.90;29.00;;;;;;4954802;28;20439;-77
2021/05/23 01:43:44;;;;;;;2.83;2.63;;;21.90;29.00;;;;;;4954449;29;20411;-76
2021/05/23 01:46:11;;;;;;;3.37;2.80;;;21.90;29.00;;;;;;4954539;29;20408;-77
2021/05/23 01:48:38;;;;;;;2.60;2.50;;;21.80;29.10;;;;;;4954614;29;20415;-76
2021/05/23 01:51:05;;;;;;;2.93;2.73;;;21.80;29.20;;;;;;4954536;28;20435;-76
2021/05/23 01:53:31;;;;;;;3.40;3.10;;;21.80;29.20;;;;;;4953649;29;20791;-77
2021/05/23 01:55:57;;;;;;;3.37;3.13;;;21.90;29.00;;;;;;4954230;28;20447;-76
2021/05/23 01:58:22;;;;;;;2.70;2.50;;;21.90;29.00;;;;;;4936873;29;20650;-77
2021/05/23 02:00:50;;;;;;;4.33;3.13;;;21.90;28.90;;;;;;4953211;28;20199;-75
2021/05/23 02:03:18;;;;;;;3.23;3.03;;;21.90;29.00;;;;;;4954320;29;20259;-77
2021/05/23 02:05:50;;;;;;;3.40;3.20;;;21.90;29.00;;;;;;4954262;29;20906;-75
2021/05/23 02:08:18;;;;;;;3.20;3.00;;;21.80;29.20;;;;;;4953946;29;20415;-76
2021/05/23 02:10:44;;;;;;;3.47;2.80;;;21.80;29.00;;;;;;4954221;28;20539;-76
2021/05/23 02:13:10;;;;;;;3.00;2.80;;;21.90;29.00;;;;;;4954295;29;20768;-76
2021/05/23 02:15:37;;;;;;;3.10;2.80;;;21.80;29.00;;;;;;4954339;29;20418;-76
2021/05/23 02:18:04;;;;;;;3.30;3.10;;;21.90;29.00;;;;;;4954291;29;20172;-76
2021/05/23 02:20:31;;;;;;;3.00;2.80;;;21.80;29.00;;;;;;4954149;28;20431;-77
2021/05/23 02:22:58;;;;;;;3.07;2.80;;;21.90;29.10;;;;;;4954105;29;20457;-77
2021/05/23 02:25:26;;;;;;;2.93;2.70;;;21.80;29.00;;;;;;4953992;29;20415;-76
2021/05/23 02:27:54;;;;;;;2.77;2.57;;;21.80;29.00;;;;;;4936722;29;20957;-76
2021/05/23 02:30:27;;;;;;;2.80;2.60;;;21.90;29.00;;;;;;4954040;28;20415;-76
2021/05/23 02:32:53;;;;;;;2.40;2.30;;;21.90;29.00;;;;;;4954130;29;20419;-76
2021/05/23 02:35:22;;;;;;;2.90;2.60;;;21.90;29.00;;;;;;4953945;29;20465;-75
2021/05/23 02:37:49;;;;;;;2.87;2.67;;;21.80;29.10;;;;;;4953906;29;20470;-76
2021/05/23 02:40:17;;;;;;;2.70;2.50;;;21.80;29.10;;;;;;4954605;28;20599;-76
2021/05/23 02:42:43;;;;;;;2.93;2.73;;;21.80;29.00;;;;;;4955090;28;20418;-76
2021/05/23 02:45:11;;;;;;;2.90;2.70;;;21.80;29.00;;;;;;4955305;29;20412;-77
2021/05/23 02:47:38;;;;;;;2.70;2.60;;;21.90;29.10;;;;;;4954757;29;20439;-76
2021/05/23 02:50:06;;;;;;;3.30;2.83;;;21.80;29.00;;;;;;4954019;29;20783;-76
2021/05/23 02:52:31;;;;;;;2.80;2.40;;;21.80;29.00;;;;;;4936662;29;20427;-76
2021/05/23 02:54:57;;;;;;;3.37;2.90;;;21.90;29.00;;;;;;4953788;29;20474;-77
2021/05/23 02:57:22;;;;;;;2.33;2.20;;;21.80;29.10;;;;;;4953580;29;20179;-77
2021/05/23 02:59:48;;;;;;;3.10;2.80;;;21.80;29.20;;;;;;4952513;29;20594;-76
2021/05/23 03:02:14;;;;;;;2.40;2.20;;;21.80;28.80;;;;;;4953649;28;20571;-76
2021/05/23 03:04:39;;;;;;;2.73;2.60;;;21.90;28.80;;;;;;4952737;29;20436;-77
2021/05/23 03:07:05;;;;;;;2.40;2.30;;;21.90;28.80;;;;;;4953353;29;20439;-77
2021/05/23 03:09:31;;;;;;;2.57;2.43;;;21.90;29.00;;;;;;4953908;29;20702;-77
2021/05/23 03:11:57;;;;;;;2.20;2.10;;;21.80;28.90;;;;;;4952660;28;20438;-77
2021/05/23 03:14:22;;;;;;;2.67;2.47;;;21.80;28.90;;;;;;4954136;29;20705;-76
2021/05/23 03:16:48;;;;;;;2.20;2.10;;;21.90;28.80;;;;;;4953853;29;20737;-77
2021/05/23 03:19:14;;;;;;;2.70;2.50;;;21.80;29.10;;;;;;4952703;29;20749;-76
2021/05/23 03:21:40;;;;;;;2.60;2.40;;;21.80;28.90;;;;;;4954195;28;20234;-76
2021/05/23 03:24:06;;;;;;;2.70;2.50;;;21.80;29.00;;;;;;4953441;29;20547;-77
2021/05/23 03:26:33;;;;;;;3.00;2.70;;;21.80;28.90;;;;;;4953483;29;20179;-76
2021/05/23 03:28:59;;;;;;;2.53;2.40;;;21.80;29.00;;;;;;4936287;29;20415;-76
2021/05/23 03:31:24;;;;;;;2.30;2.20;;;21.80;29.00;;;;;;4953583;28;20445;-77
2021/05/23 03:33:50;;;;;;;2.60;2.40;;;21.80;28.90;;;;;;4952908;29;20419;-76
2021/05/23 03:36:16;;;;;;;2.60;2.40;;;21.80;28.80;;;;;;4953367;29;20175;-76
2021/05/23 03:38:44;;;;;;;2.40;2.30;;;21.80;28.90;;;;;;4953218;29;20211;-77
2021/05/23 03:41:09;;;;;;;2.10;2.00;;;21.80;28.80;;;;;;4953442;28;20438;-76
2021/05/23 03:43:35;;;;;;;2.07;1.97;;;21.90;28.80;;;;;;4953213;29;20438;-76
2021/05/23 03:46:00;;;;;;;2.20;2.10;;;21.80;28.90;;;;;;4952069;29;20201;-76
2021/05/23 03:48:26;;;;;;;2.10;2.00;;;21.80;28.90;;;;;;4952261;29;20673;-76
2021/05/23 03:50:51;;;;;;;2.60;2.40;;;21.80;28.80;;;;;;4951898;28;20503;-76
2021/05/23 03:53:17;;;;;;;2.20;2.10;;;21.90;28.80;;;;;;4953335;29;20259;-76
2021/05/23 03:55:43;;;;;;;2.67;2.47;;;21.80;28.80;;;;;;4955615;28;20283;-77
2021/05/23 03:58:08;;;;;;;2.33;2.13;;;21.90;28.80;;;;;;4956636;29;20278;-76
2021/05/23 04:00:36;;;;;;;2.53;2.33;;;21.80;29.00;;;;;;4956580;28;20075;-76
2021/05/23 04:03:02;;;;;;;2.13;2.03;;;21.80;28.90;;;;;;4956627;29;20175;-77
2021/05/23 04:05:29;;;;;;;2.50;2.40;;;21.90;28.90;;;;;;4956304;29;20415;-77
2021/05/23 04:07:59;;;;;;;2.83;2.63;;;21.80;29.00;;;;;;4956750;29;20413;-76
2021/05/23 04:10:39;;;;;;;2.37;2.27;;;21.80;28.90;;;;;;4958327;28;20415;-76
2021/05/23 04:13:08;;;;;;;2.40;2.30;;;21.80;28.90;;;;;;4939617;29;20465;-77
2021/05/23 04:15:33;;;;;;;2.30;2.20;;;21.80;28.80;;;;;;4956594;29;20906;-77
2021/05/23 04:17:59;;;;;;;2.30;2.10;;;21.80;29.00;;;;;;4955350;29;20430;-77
2021/05/23 04:20:26;;;;;;;1.93;1.80;;;21.80;29.00;;;;;;4956654;28;20199;-77
2021/05/23 04:22:53;;;;;;;3.53;2.53;;;21.80;29.00;;;;;;4958831;29;20182;-77
2021/05/23 04:25:20;;;;;;;3.90;2.53;;;21.80;28.70;;;;;;4959842;29;21042;-78
2021/05/23 04:27:48;;;;;;;2.67;2.47;;;21.90;29.00;;;;;;4962090;29;20502;-77
2021/05/23 04:30:16;;;;;;;2.23;2.13;;;21.80;29.00;;;;;;4960408;28;20485;-77
2021/05/23 04:32:42;;;;;;;2.47;2.30;;;21.90;28.80;;;;;;4959546;29;20437;-78
2021/05/23 04:35:08;;;;;;;2.83;2.40;;;21.90;28.70;;;;;;4958600;29;20438;-77
2021/05/23 04:37:34;;;;;;;3.07;2.33;;;22.00;28.80;;;;;;4958302;29;20183;-77
2021/05/23 04:40:00;;;;;;;3.93;3.03;;;22.00;28.70;;;;;;4958597;29;20526;-78
2021/05/23 04:42:26;;;;;;;4.37;2.30;;;22.00;28.80;;;;;;4957059;28;20199;-76
2021/05/23 04:44:51;;;;;;;4.53;2.43;;;22.00;29.00;;;;;;4955579;29;20206;-76
2021/05/23 04:47:17;;;;;;;2.37;2.17;;;21.90;29.50;;;;;;4955718;29;20176;-75
2021/05/23 04:49:44;;;;;;;4.87;2.40;;;22.00;29.50;;;;;;4955734;29;20207;-76
2021/05/23 04:52:11;;;;;;;3.07;2.13;;;22.10;29.40;;;;;;4955510;28;20450;-77
2021/05/23 04:54:38;;;;;;;4.20;2.50;;;22.10;29.30;;;;;;4953942;28;20443;-76
2021/05/23 04:57:05;;;;;;;2.30;2.20;;;22.20;29.20;;;;;;4954692;29;20650;-76
2021/05/23 04:59:30;;;;;;;2.97;2.53;;;22.30;29.70;;;;;;4954800;29;20469;-77
2021/05/23 05:01:56;;;;;;;3.03;2.10;;;22.30;28.80;;;;;;4954730;28;20435;-76
2021/05/23 05:04:21;;;;;;;5.20;2.17;;;22.40;28.90;;;;;;4954596;29;20770;-76
2021/05/23 05:06:47;;;;;;;2.13;1.80;;;22.30;28.90;;;;;;4954390;28;20179;-76
2021/05/23 05:09:13;;;;;;;2.30;2.10;;;22.30;28.80;;;;;;4954505;29;20423;-76
2021/05/23 05:11:39;;;;;;;4.03;1.83;;;22.40;28.80;;;;;;4955280;28;20453;-76
2021/05/23 05:14:04;;;;;;;3.33;2.03;;;22.40;28.40;;;;;;4955103;29;20613;-76
2021/05/23 05:16:30;;;;;;;2.15;1.95;;;22.30;28.80;;;;;;4937541;29;20419;-76
2021/05/23 05:18:56;;;;;;;2.10;2.00;;;22.40;28.70;;;;;;4955137;29;20215;-77
2021/05/23 05:21:21;;;;;;;5.93;2.43;;;22.40;28.90;;;;;;4955160;28;20195;-76
2021/05/23 05:23:47;;;;;;;1.77;1.70;;;22.40;28.70;;;;;;4954028;29;20199;-76
2021/05/23 05:26:13;;;;;;;2.53;2.10;;;22.40;28.70;;;;;;4954084;29;20473;-76
2021/05/23 05:28:39;;;;;;;2.50;2.30;;;22.40;28.70;;;;;;4954956;29;20642;-76
2021/05/23 05:31:05;;;;;;;1.83;1.73;;;22.40;28.70;;;;;;4954793;28;20562;-76
2021/05/23 05:33:30;;;;;;;2.50;1.83;;;22.50;28.50;;;;;;4953682;29;20929;-76
2021/05/23 05:35:56;;;;;;;2.53;2.33;;;22.50;28.50;;;;;;4937429;29;20207;-75
2021/05/23 05:38:21;;;;;;;2.40;2.20;;;22.40;28.70;;;;;;4953768;29;20215;-76
2021/05/23 05:40:47;;;;;;;2.57;2.10;;;22.40;28.60;;;;;;4954459;28;20412;-76
2021/05/23 05:43:13;;;;;;;2.50;2.03;;;22.50;28.40;;;;;;4955068;29;20183;-76
2021/05/23 05:45:38;;;;;;;2.20;2.00;;;22.50;28.30;;;;;;4954756;29;20230;-77
2021/05/23 05:48:05;;;;;;;2.40;1.90;;;22.50;28.10;;;;;;4954900;29;20175;-77
2021/05/23 05:50:30;;;;;;;1.93;1.83;;;22.60;28.10;;;;;;4954699;28;20241;-76
2021/05/23 05:52:56;;;;;;;2.30;2.20;;;22.60;28.00;;;;;;4954575;29;20447;-76
2021/05/23 05:55:22;;;;;;;2.47;2.30;;;22.60;27.90;;;;;;4954357;29;20199;-76
2021/05/23 05:57:47;;;;;;;5.30;2.10;;;22.60;27.90;;;;;;4954493;29;20219;-76
2021/05/23 06:00:13;;;;;;;1.87;1.70;;;22.70;27.80;;;;;;4954363;28;20207;-76
2021/05/23 06:02:39;;;;;;;2.27;2.17;;;22.70;28.30;;;;;;4954488;29;20229;-75
2021/05/23 06:05:05;;;;;;;2.42;1.83;;;22.60;27.80;;;;;;4954032;29;20420;-76
2021/05/23 06:07:31;;;;;;;1.93;1.83;;;22.70;27.70;;;;;;4954207;29;20647;-76
2021/05/23 06:09:56;;;;;;;2.30;2.10;;;22.70;27.70;;;;;;4955782;29;20447;-77
2021/05/23 06:12:22;;;;;;;3.43;2.30;;;22.70;27.70;;;;;;4955763;28;20206;-76
2021/05/23 06:14:47;;;;;;;4.93;2.23;;;22.60;27.60;;;;;;4955525;29;20187;-75
2021/05/23 06:17:13;;;;;;;3.60;2.40;;;22.70;27.00;;;;;;4954644;28;20186;-75
2021/05/23 06:19:38;;;;;;;4.00;2.67;;;22.40;26.00;;;;;;4953763;29;20207;-76
2021/05/23 06:22:04;;;;;;;2.97;2.00;;;22.30;24.90;;;;;;4953999;28;20412;-75
2021/05/23 06:24:29;;;;;;;1.80;1.70;;;22.20;24.60;;;;;;4954104;29;20176;-75
2021/05/23 06:26:55;;;;;;;2.40;2.30;;;22.10;24.10;;;;;;4953806;29;20175;-76
2021/05/23 06:29:21;;;;;;;2.23;2.10;;;21.90;24.00;;;;;;4954015;29;20205;-76
2021/05/23 06:31:46;;;;;;;1.90;1.80;;;21.60;24.50;;;;;;4948084;28;20201;-74
2021/05/23 06:34:12;;;;;;;1.87;1.77;;;21.70;24.20;;;;;;4956643;28;20221;-75
2021/05/23 06:36:38;;;;;;;1.90;1.80;;;21.60;24.00;;;;;;4973424;28;20170;-77
2021/05/23 06:39:08;;;;;;;2.00;1.90;;;21.70;24.50;;;;;;4955168;28;20525;-76
2021/05/23 06:41:36;;;;;;;2.00;1.90;;;21.90;25.20;;;;;;4955960;28;20202;-77
2021/05/23 06:44:02;;;;;;;1.93;1.70;;;22.10;25.10;;;;;;4956783;28;20414;-76
2021/05/23 06:46:28;;;;;;;1.87;1.77;;;22.40;24.90;;;;;;4973794;28;20931;-76
2021/05/23 06:48:53;;;;;;;3.80;1.77;;;22.50;24.80;;;;;;4942201;28;20443;-75
2021/05/23 06:51:19;;;;;;;2.50;1.80;;;22.50;25.20;;;;;;4960085;28;20861;-75
2021/05/23 06:53:45;;;;;;;1.70;1.60;;;22.40;25.20;;;;;;4972951;28;20193;-75
2021/05/23 06:56:10;;;;;;;1.80;1.70;;;22.50;25.40;;;;;;4972685;28;20207;-75
2021/05/23 06:58:36;;;;;;;1.80;1.70;;;22.60;25.20;;;;;;4971243;28;20291;-75
2021/05/23 07:01:02;;;;;;;2.70;1.70;;;22.60;25.00;;;;;;4971174;28;20209;-76
2021/05/23 07:03:29;;;;;;;5.23;1.93;;;22.70;25.10;;;;;;4973142;28;20551;-76
2021/05/23 07:05:54;;;;;;;2.83;1.80;;;22.70;25.30;;;;;;4972700;28;20414;-75
2021/05/23 07:08:20;;;;;;;2.20;2.10;;;22.70;25.40;;;;;;4987707;28;20938;-76
2021/05/23 07:10:46;;;;;;;1.63;1.63;;;22.80;25.50;;;;;;4972089;28;20246;-76
2021/05/23 07:13:11;;;;;;;2.23;2.07;;;22.90;25.50;;;;;;4972958;28;20181;-76
2021/05/23 07:15:37;;;;;;;2.17;1.97;;;22.90;25.60;;;;;;4973067;28;20182;-77
2021/05/23 07:18:03;;;;;;;1.60;1.50;;;22.90;25.60;;;;;;4973469;28;20175;-76
2021/05/23 07:20:29;;;;;;;1.70;1.60;;;23.00;25.50;;;;;;4972032;28;20599;-76
2021/05/23 07:22:54;;;;;;;2.23;2.03;;;23.00;25.60;;;;;;4973097;28;20175;-76
2021/05/23 07:25:21;;;;;;;1.50;1.43;;;23.10;25.50;;;;;;4972322;28;20225;-76
2021/05/23 07:27:47;;;;;;;1.57;1.57;;;23.10;25.60;;;;;;4972850;28;20406;-77
2021/05/23 07:30:13;;;;;;;2.20;2.00;;;23.20;25.70;;;;;;4957676;28;20861;-77
2021/05/23 07:32:39;;;;;;;1.70;1.60;;;23.20;25.70;;;;;;4977067;28;20694;-77
2021/05/23 07:35:06;;;;;;;2.10;1.90;;;23.10;25.80;;;;;;4976554;28;20449;-76
2021/05/23 07:37:32;;;;;;;4.30;1.80;;;23.10;25.90;;;;;;4976596;28;20202;-76
2021/05/23 07:39:57;;;;;;;1.80;1.70;;;23.10;25.80;;;;;;4977036;28;20485;-76
2021/05/23 07:42:22;;;;;;;1.70;1.60;;;23.10;25.90;;;;;;4984614;28;20549;-78
2021/05/23 07:44:48;;;;;;;1.70;1.60;;;23.10;26.00;;;;;;4979166;28;20186;-78
2021/05/23 07:47:14;;;;;;;1.70;1.60;;;23.10;26.00;;;;;;4977594;28;20414;-75
2021/05/23 07:49:42;;;;;;;1.73;1.47;;;23.20;26.10;;;;;;4976425;28;20178;-76
2021/05/23 07:52:08;;;;;;;2.23;1.70;;;23.10;26.00;;;;;;4976002;28;20571;-75
2021/05/23 07:54:34;;;;;;;3.07;1.90;;;23.00;26.20;;;;;;4975758;28;20433;-75
2021/05/23 07:57:01;;;;;;;2.93;1.80;;;22.90;26.30;;;;;;4976188;28;20963;-77
2021/05/23 07:59:27;;;;;;;4.27;1.80;;;22.90;26.30;;;;;;4976222;28;20202;-75
2021/05/23 08:01:52;;;;;;;7.90;1.80;;;23.00;26.50;;;;;;4976190;28;20437;-75
2021/05/23 08:04:18;;;;;;;3.67;1.87;;;23.00;26.70;;;;;;4976650;28;20202;-77
2021/05/23 08:06:43;;;;;;;1.93;1.80;;;23.00;26.70;;;;;;4977803;28;20641;-77
2021/05/23 08:09:09;;;;;;;3.50;2.17;;;23.10;26.70;;;;;;4977805;28;20175;-77
2021/05/23 08:11:35;;;;;;;6.37;3.30;;;23.20;26.70;;;;;;4975656;28;20260;-76
2021/05/23 08:14:00;;;;;;;6.17;2.67;;;23.20;26.70;;;;;;4975990;28;20555;-76
2021/05/23 08:16:26;;;;;;;8.07;2.63;;;23.30;26.60;;;;;;4975405;28;20654;-77
2021/05/23 08:18:51;;;;;;;11.27;3.43;;;23.30;26.70;;;;;;4975388;28;20198;-76
2021/05/23 08:21:17;;;;;;;11.33;3.00;;;23.30;26.60;;;;;;4974355;28;20233;-76
2021/05/23 08:23:43;;;;;;;7.67;3.30;;;23.40;26.60;;;;;;4975471;28;20175;-76
2021/05/23 08:26:09;;;;;;;10.53;3.47;;;23.40;26.60;;;;;;4975169;28;20182;-76
2021/05/23 08:28:35;;;;;;;9.03;3.70;;;23.40;26.60;;;;;;4975476;28;20823;-76
2021/05/23 08:31:02;;;;;;;8.10;3.33;;;23.40;26.50;;;;;;4975350;28;20426;-76
2021/05/23 08:33:27;;;;;;;10.05;3.85;;;23.40;26.70;;;;;;4974397;28;20907;-76
2021/05/23 08:35:53;;;;;;;7.50;3.37;;;23.40;26.60;;;;;;4975213;28;20257;-76
2021/05/23 08:38:18;;;;;;;9.93;4.33;;;23.50;26.60;;;;;;4974899;28;20178;-76
2021/05/23 08:40:44;;;;;;;5.50;3.10;;;23.50;26.60;;;;;;4956720;28;20211;-76
2021/05/23 08:43:12;;;;;;;6.77;3.60;;;23.50;26.70;;;;;;4975065;28;20605;-76
2021/05/23 08:45:37;;;;;;;11.63;3.70;;;23.50;26.80;;;;;;4974902;28;20167;-76
2021/05/23 08:48:04;;;;;;;6.10;3.63;;;23.50;26.80;;;;;;4974832;28;20430;-76
2021/05/23 08:50:31;;;;;;;9.67;4.37;;;23.40;26.80;;;;;;4974964;28;20565;-76
2021/05/23 08:52:58;;;;;;;7.67;3.73;;;23.40;26.90;;;;;;4974754;28;20414;-76
2021/05/23 08:55:25;;;;;;;7.47;3.07;;;23.40;26.90;;;;;;4974515;28;20430;-76
2021/05/23 08:57:52;;;;;;;8.05;3.97;;;23.40;27.00;;;;;;4956769;28;20903;-76
2021/05/23 09:00:19;;;;;;;7.93;3.53;;;23.40;27.60;;;;;;4974722;28;20202;-76
2021/05/23 09:02:52;;;;;;;10.50;3.07;;;23.30;26.70;;;;;;4974713;28;20414;-76
2021/05/23 09:05:38;;;;;;;4.13;2.80;;;23.20;27.00;;;;;;4974595;28;20410;-76
2021/05/23 09:08:15;;;;;;;8.70;3.07;;;23.20;26.80;;;;;;4974699;28;20414;-76
2021/05/23 09:10:47;;;;;;;5.53;2.73;;;23.20;27.00;;;;;;4974612;28;20429;-76
2021/05/23 09:13:24;;;;;;;6.25;3.13;;;23.30;27.00;;;;;;4974300;28;20421;-76
2021/05/23 09:16:04;;;;;;;5.27;3.27;;;23.20;27.00;;;;;;4974701;28;20248;-77
2021/05/23 09:18:47;;;;;;;6.13;2.90;;;23.20;27.00;;;;;;4974555;28;20426;-76
2021/05/23 09:21:22;;;;;;;4.60;3.00;;;23.00;27.30;;;;;;4974680;28;20834;-76
2021/05/23 09:24:00;;;;;;;6.13;2.80;;;22.90;27.60;;;;;;4974191;28;20557;-76
2021/05/23 09:26:29;;;;;;;4.43;2.90;;;22.70;27.80;;;;;;4973140;28;20762;-76
2021/05/23 09:29:05;;;;;;;5.37;2.90;;;22.60;28.10;;;;;;4974215;28;20413;-76
2021/05/23 09:31:31;;;;;;;10.77;3.10;;;22.50;28.10;;;;;;4973982;28;20480;-76
2021/05/23 09:33:57;;;;;;;4.87;3.10;;;22.40;28.30;;;;;;4974381;28;20960;-75
2021/05/23 09:36:23;;;;;;;3.70;3.07;;;22.30;28.60;;;;;;4973989;28;20174;-76
2021/05/23 09:38:56;;;;;;;4.10;2.90;;;22.20;28.80;;;;;;4974142;28;20290;-76
2021/05/23 09:41:27;;;;;;;4.83;2.97;;;22.10;29.00;;;;;;4957866;28;20438;-76
2021/05/23 09:44:16;;;;;;;4.87;2.73;;;22.10;29.20;;;;;;4975469;28;20416;-76
2021/05/23 09:47:02;;;;;;;3.53;2.70;;;21.90;29.20;;;;;;4956674;28;20424;-76
2021/05/23 09:49:30;;;;;;;5.93;2.80;;;21.90;29.50;;;;;;4972654;28;20414;-76
2021/05/23 09:52:01;;;;;;;6.73;3.30;;;21.80;29.40;;;;;;4973942;28;20426;-77
2021/05/23 09:54:29;;;;;;;5.37;3.00;;;21.80;29.60;;;;;;4967657;28;20484;-77
2021/05/23 09:56:56;;;;;;;5.93;3.20;;;21.70;29.80;;;;;;4972988;28;20414;-77
2021/05/23 09:59:26;;;;;;;4.80;3.20;;;21.70;29.90;;;;;;4973421;28;20458;-77
2021/05/23 10:01:52;;;;;;;5.57;3.03;;;21.60;29.90;;;;;;4974912;28;20951;-77
2021/05/23 10:04:23;;;;;;;4.33;3.40;;;21.60;29.60;;;;;;4960341;28;20443;-77
2021/05/23 10:07:04;;;;;;;5.00;3.10;;;21.60;29.90;;;;;;4977004;28;20551;-78
2021/05/23 10:09:30;;;;;;;7.50;3.30;;;21.50;30.00;;;;;;4974739;28;21019;-78
2021/05/23 10:11:57;;;;;;;4.47;2.93;;;21.50;30.20;;;;;;4959159;28;20495;-77
2021/05/23 10:14:24;;;;;;;6.47;3.20;;;21.40;30.40;;;;;;4973639;28;20472;-77
2021/05/23 10:16:51;;;;;;;6.13;3.00;;;21.40;30.60;;;;;;4973153;28;20468;-76
2021/05/23 10:19:23;;;;;;;7.97;3.17;;;21.30;31.00;;;;;;4973306;28;20819;-76
2021/05/23 10:21:50;;;;;;;3.77;2.80;;;21.20;30.90;;;;;;4956104;28;20446;-77
2021/05/23 10:24:33;;;;;;;4.67;3.00;;;21.10;30.80;;;;;;4971884;28;20414;-77
2021/05/23 10:27:04;;;;;;;8.60;3.50;;;21.10;30.80;;;;;;4955697;28;20444;-76
2021/05/23 10:29:32;;;;;;;4.20;3.20;;;21.00;30.70;;;;;;4973383;28;20417;-77
2021/05/23 10:32:10;;;;;;;4.97;3.10;;;21.00;31.30;;;;;;4973018;28;20572;-77
2021/05/23 10:34:46;;;;;;;3.83;2.97;;;20.90;32.60;;;;;;4955526;28;20426;-77
2021/05/23 10:37:13;;;;;;;4.23;3.47;;;21.30;32.70;;;;;;4973603;28;20502;-77
2021/05/23 10:39:51;;;;;;;5.20;3.13;;;21.50;32.40;;;;;;4977599;28;20948;-75
2021/05/23 10:42:38;;;;;;;4.63;3.00;;;21.70;31.90;;;;;;4955452;28;21007;-76
2021/05/23 10:45:54;;;;;;;3.27;2.97;;;22.00;31.60;;;;;;4956559;28;20429;-76
2021/05/23 10:48:20;;;;;;;6.27;3.47;;;22.20;31.60;;;;;;4898184;28;20438;-76
2021/05/23 10:50:47;;;;;;;3.63;2.60;;;22.40;30.90;;;;;;4972887;28;20929;-76
2021/05/23 10:53:14;;;;;;;4.13;3.30;;;22.50;30.60;;;;;;4970814;28;20501;-76
2021/05/23 10:55:53;;;;;;;5.37;3.60;;;22.60;30.30;;;;;;4973103;28;20383;-76
2021/05/23 10:58:23;;;;;;;7.93;5.03;;;22.60;30.40;;;;;;4972579;28;20426;-76
2021/05/23 11:00:53;;;;;;;13.93;6.37;;;22.70;30.40;;;;;;4949891;28;21071;-76
2021/05/23 11:03:20;;;;;;;22.77;13.30;;;22.70;30.70;;;;;;4936355;28;20969;-76
2021/05/23 11:05:46;;;;;;;49.10;34.30;;;22.80;30.70;;;;;;4958601;28;20894;-75
2021/05/23 11:08:14;;;;;;;100.73;74.17;;;22.80;31.40;;;;;;4981383;28;20424;-76
2021/05/23 11:10:47;;;;;;;99.97;75.67;;;22.70;30.60;;;;;;4975432;28;20438;-76
2021/05/23 11:13:15;;;;;;;104.00;73.07;;;22.50;31.10;;;;;;4976453;28;20469;-74
2021/05/23 11:15:45;;;;;;;108.20;72.88;;;22.50;30.50;;;;;;4975402;28;20414;-74
2021/05/23 11:18:29;;;;;;;109.47;69.73;;;22.40;30.90;;;;;;4976560;28;20174;-74
2021/05/23 11:21:00;;;;;;;107.22;74.70;;;22.30;30.80;;;;;;4970951;28;20426;-74
2021/05/23 11:23:26;;;;;;;94.40;67.43;;;22.40;30.80;;;;;;4976502;28;20174;-77
2021/05/23 11:26:25;;;;;;;95.00;69.37;;;22.30;30.60;;;;;;4976206;28;20410;-75
2021/05/23 11:28:53;;;;;;;92.40;66.97;;;22.30;30.70;;;;;;4944222;28;20920;-75
2021/05/23 11:31:30;;;;;;;101.50;68.93;;;22.30;30.40;;;;;;4958651;28;20450;-76
2021/05/23 11:33:57;;;;;;;88.03;66.60;;;22.30;30.10;;;;;;4976467;28;20927;-75
2021/05/23 11:36:26;;;;;;;84.93;62.77;;;22.30;30.30;;;;;;4976044;28;20414;-75
2021/05/23 11:38:57;;;;;;;89.03;64.07;;;22.30;30.30;;;;;;4975980;28;20516;-76
2021/05/23 11:41:34;;;;;;;88.17;62.07;;;22.30;30.20;;;;;;4976114;28;20456;-74
2021/05/23 11:44:00;;;;;;;86.70;62.17;;;22.20;30.30;;;;;;4975873;28;20480;-76
2021/05/23 11:46:28;;;;;;;76.83;59.80;;;22.20;30.20;;;;;;4975464;28;20421;-76
2021/05/23 11:48:55;;;;;;;82.80;59.20;;;22.20;30.00;;;;;;4976098;28;20968;-75
2021/05/23 11:51:25;;;;;;;75.05;58.78;;;22.30;30.00;;;;;;4976342;28;20417;-75
2021/05/23 11:54:04;;;;;;;79.67;56.93;;;22.20;30.00;;;;;;4975964;28;20171;-75
2021/05/23 11:56:35;;;;;;;74.13;55.20;;;22.20;29.90;;;;;;4975953;28;20485;-75
2021/05/23 11:59:07;;;;;;;75.97;56.07;;;22.30;29.80;;;;;;4975616;28;20476;-75
2021/05/23 12:01:35;;;;;;;65.63;54.17;;;22.30;29.70;;;;;;4974850;28;20952;-75
2021/05/23 12:04:11;;;;;;;71.00;55.20;;;22.20;29.70;;;;;;4959097;28;20995;-75
2021/05/23 12:06:39;;;;;;;71.07;53.67;;;22.20;30.00;;;;;;4975181;28;20501;-76
2021/05/23 12:09:31;;;;;;;59.87;51.40;;;22.20;29.90;;;;;;4975726;28;20432;-76
2021/05/23 12:12:01;;;;;;;71.07;51.83;;;22.20;29.60;;;;;;4975924;28;20521;-75
2021/05/23 12:14:28;;;;;;;68.83;50.87;;;22.20;29.80;;;;;;4975316;28;20485;-76
2021/05/23 12:17:04;;;;;;;63.60;53.10;;;22.20;29.70;;;;;;4975373;28;20402;-75
2021/05/23 12:19:47;;;;;;;70.10;50.93;;;22.10;29.80;;;;;;4975390;28;20453;-75
2021/05/23 12:22:38;;;;;;;59.97;48.70;;;22.10;29.80;;;;;;4974970;28;20418;-75
2021/05/23 12:25:03;;;;;;;58.43;48.33;;;22.10;29.80;;;;;;4975258;28;20171;-76
2021/05/23 12:27:33;;;;;;;65.13;49.60;;;22.20;29.60;;;;;;4957920;28;20865;-75
2021/05/23 12:30:11;;;;;;;62.73;49.10;;;22.20;29.60;;;;;;4975021;28;20181;-74
2021/05/23 12:32:57;;;;;;;64.17;49.20;;;22.20;29.60;;;;;;4975265;28;20885;-75
2021/05/23 12:35:41;;;;;;;57.47;48.30;;;22.20;29.50;;;;;;4974949;28;20461;-74
2021/05/23 12:38:17;;;;;;;59.93;46.40;;;22.20;29.50;;;;;;4974876;28;20548;-74
2021/05/23 12:40:43;;;;;;;60.03;45.90;;;22.20;29.40;;;;;;4972008;28;20553;-75
2021/05/23 12:43:20;;;;;;;54.50;46.20;;;22.20;29.40;;;;;;4974874;28;20478;-75
2021/05/23 12:46:11;;;;;;;58.60;44.80;;;22.10;29.50;;;;;;4957834;28;20174;-75
2021/05/23 12:48:38;;;;;;;58.30;45.20;;;22.20;29.40;;;;;;4975146;28;20546;-75